Time;durP1;ratioP1;P1;durP2;ratioP2;P2;SDS_P1;SDS_P2;PMS_P1;PMS_P2;Temp;Humidity;BMP_temperature;BMP_pressure;BME280_temperature;BME280_humidity;BME280_pressure;Samples;Min_cycle;Max_cycle;Signal;HPM_P1;HPM_P2
2023/11/11 00:00:37;;;;;;;3.58;2.30;;;;;;;8.62;73.65;100149.99;1706568;84;21033;-62
2023/11/11 00:03:07;;;;;;;5.65;2.47;;;;;;;8.62;73.67;100145.37;1742595;82;21453;-63
2023/11/11 00:05:36;;;;;;;5.17;2.80;;;;;;;8.64;73.62;100145.19;1742500;82;21032;-62
2023/11/11 00:08:04;;;;;;;4.33;2.52;;;;;;;8.64;73.13;100145.19;1742285;82;21024;-62
2023/11/11 00:10:33;;;;;;;6.62;2.37;;;;;;;8.64;73.11;100137.84;1742613;82;21075;-62
2023/11/11 00:13:03;;;;;;;6.45;2.52;;;;;;;8.64;72.57;100132.89;1706898;84;21084;-63
2023/11/11 00:15:34;;;;;;;7.62;2.58;;;;;;;8.61;72.55;100146.41;1742593;82;21063;-63
2023/11/11 00:18:03;;;;;;;4.47;2.42;;;;;;;8.60;72.37;100144.72;1739722;82;21111;-63
2023/11/11 00:20:32;;;;;;;4.53;2.55;;;;;;;8.58;72.25;100130.41;1725605;83;21076;-61
2023/11/11 00:23:02;;;;;;;5.03;2.52;;;;;;;8.57;72.25;100126.84;1725320;83;21024;-63
2023/11/11 00:25:31;;;;;;;4.72;2.60;;;;;;;8.58;72.12;100128.53;1725555;83;21047;-63
2023/11/11 00:28:00;;;;;;;5.70;2.70;;;;;;;8.59;72.18;100126.64;1725347;83;21032;-64
2023/11/11 00:30:30;;;;;;;5.20;3.08;;;;;;;8.60;72.08;100109.73;1678728;85;20989;-63
2023/11/11 00:32:59;;;;;;;4.78;2.65;;;;;;;8.62;71.97;100113.12;1725414;82;21064;-64
2023/11/11 00:35:27;;;;;;;4.67;2.60;;;;;;;8.62;71.86;100104.94;1725555;83;20977;-63
2023/11/11 00:37:56;;;;;;;5.45;3.08;;;;;;;8.61;71.58;100099.14;1725631;83;21071;-63
2023/11/11 00:40:25;;;;;;;5.85;2.70;;;;;;;8.58;71.21;100097.13;1725471;83;21028;-63
2023/11/11 00:42:54;;;;;;;5.17;2.55;;;;;;;8.55;71.12;100093.41;1725495;83;21016;-64
2023/11/11 00:45:23;;;;;;;6.58;2.75;;;;;;;8.52;71.35;100084.76;1678631;85;21025;-64
2023/11/11 00:47:51;;;;;;;6.30;2.67;;;;;;;8.52;71.22;100081.51;1725365;83;21092;-63
2023/11/11 00:50:20;;;;;;;7.20;2.77;;;;;;;8.50;71.06;100066.36;1678651;85;21040;-63
2023/11/11 00:52:49;;;;;;;8.68;3.22;;;;;;;8.49;71.03;100068.77;1707528;83;21040;-64
2023/11/11 00:55:17;;;;;;;6.17;2.77;;;;;;;8.47;71.12;100063.49;1725316;83;21444;-62
2023/11/11 00:57:46;;;;;;;4.65;2.75;;;;;;;8.46;71.03;100067.27;1725499;83;21068;-64
2023/11/11 01:00:19;;;;;;;5.42;2.95;;;;;;;8.42;70.86;100059.09;1725239;83;21091;-62
2023/11/11 01:02:45;;;;;;;6.55;3.22;;;;;;;8.39;70.90;100052.66;1678680;85;21076;-63
2023/11/11 01:05:14;;;;;;;6.12;2.98;;;;;;;8.37;70.89;100056.09;1725632;83;21084;-62
2023/11/11 01:07:43;;;;;;;4.67;2.67;;;;;;;8.35;70.74;100048.62;1725390;83;21040;-63
2023/11/11 01:10:12;;;;;;;5.10;2.72;;;;;;;8.35;70.86;100047.25;1725442;83;21087;-64
2023/11/11 01:12:42;;;;;;;5.10;2.72;;;;;;;8.36;70.81;100042.12;1725186;83;21016;-62
2023/11/11 01:15:12;;;;;;;4.75;2.60;;;;;;;8.35;70.90;100045.89;1725697;83;21024;-62
2023/11/11 01:17:41;;;;;;;6.97;3.00;;;;;;;8.32;70.75;100036.69;1725412;83;21052;-63
2023/11/11 01:20:12;;;;;;;6.35;3.05;;;;;;;8.33;70.76;100039.78;1729841;82;21083;-62
2023/11/11 01:22:41;;;;;;;6.40;3.30;;;;;;;8.30;70.75;100042.86;1730348;83;21075;-63
2023/11/11 01:25:12;;;;;;;5.50;2.90;;;;;;;8.30;70.80;100037.40;1730321;82;21036;-62
2023/11/11 01:27:40;;;;;;;5.45;2.62;;;;;;;8.30;70.84;100022.38;1730283;83;21052;-64
2023/11/11 01:30:10;;;;;;;8.23;3.20;;;;;;;8.30;70.88;100023.75;1730489;82;21047;-63
2023/11/11 01:32:39;;;;;;;7.75;2.85;;;;;;;8.31;70.90;100015.05;1730558;83;21119;-63
2023/11/11 01:35:09;;;;;;;5.78;2.70;;;;;;;8.28;71.03;100007.56;1730395;83;21072;-62
2023/11/11 01:37:37;;;;;;;6.40;2.80;;;;;;;8.30;71.12;100007.89;1730282;83;21040;-64
2023/11/11 01:40:07;;;;;;;5.35;2.70;;;;;;;8.30;71.22;99999.19;1693097;85;21100;-63
2023/11/11 01:42:36;;;;;;;7.40;3.60;;;;;;;8.29;71.30;100001.59;1686257;85;21087;-63
2023/11/11 01:45:06;;;;;;;4.37;2.60;;;;;;;8.30;71.49;99992.36;1692940;85;21148;-64
2023/11/11 01:47:35;;;;;;;5.58;2.77;;;;;;;8.31;71.56;99983.13;1693134;85;21033;-63
2023/11/11 01:50:04;;;;;;;4.22;2.65;;;;;;;8.34;71.76;99981.94;1685959;85;21055;-64
2023/11/11 01:52:34;;;;;;;6.00;2.72;;;;;;;8.35;71.92;99973.55;1692951;85;21049;-63
2023/11/11 01:55:04;;;;;;;5.65;2.72;;;;;;;8.37;72.07;99978.81;1692967;85;20997;-63
2023/11/11 01:57:33;;;;;;;5.12;2.90;;;;;;;8.39;72.26;99977.58;1686210;85;21040;-64
2023/11/11 02:00:10;;;;;;;5.90;2.50;;;;;;;8.41;72.47;99978.75;1692970;85;21100;-63
2023/11/11 02:02:33;;;;;;;3.70;2.40;;;;;;;8.43;72.69;99971.22;1692398;84;21037;-62
2023/11/11 02:05:01;;;;;;;3.95;2.40;;;;;;;8.44;72.87;99961.47;1686038;85;21083;-63
2023/11/11 02:07:30;;;;;;;6.78;2.92;;;;;;;8.44;73.14;99964.20;1693134;85;21037;-63
2023/11/11 02:10:01;;;;;;;6.58;2.90;;;;;;;8.46;73.31;99955.33;1693185;85;21072;-64
2023/11/11 02:12:31;;;;;;;4.62;2.62;;;;;;;8.49;73.47;99951.36;1686059;85;21071;-62
2023/11/11 02:15:00;;;;;;;7.78;3.00;;;;;;;8.52;73.65;99946.88;1693025;84;21056;-63
2023/11/11 02:17:29;;;;;;;5.97;2.85;;;;;;;8.52;73.84;99939.53;1693045;85;21101;-63
2023/11/11 02:20:00;;;;;;;5.22;3.08;;;;;;;8.54;74.06;99944.27;1685221;85;21064;-63
2023/11/11 02:22:29;;;;;;;5.85;2.85;;;;;;;8.57;74.21;99943.88;1740104;82;21035;-64
2023/11/11 02:25:01;;;;;;;4.78;2.80;;;;;;;8.55;74.45;99930.94;1740089;82;21020;-63
2023/11/11 02:27:31;;;;;;;4.10;2.67;;;;;;;8.57;74.62;99932.95;1740256;82;21075;-63
2023/11/11 02:30:02;;;;;;;7.70;3.08;;;;;;;8.56;74.77;99931.27;1704777;84;21472;-64
2023/11/11 02:32:31;;;;;;;8.10;2.55;;;;;;;8.55;74.94;99933.67;1740370;82;21079;-61
2023/11/11 02:35:00;;;;;;;5.17;2.40;;;;;;;8.55;75.05;99926.84;1740311;82;21059;-63
2023/11/11 02:37:30;;;;;;;6.45;3.17;;;;;;;8.56;75.26;99921.71;1705059;84;21012;-63
2023/11/11 02:39:59;;;;;;;3.77;2.47;;;;;;;8.57;75.46;99919.83;1740034;82;21012;-63
2023/11/11 02:42:27;;;;;;;6.55;3.17;;;;;;;8.63;75.59;99917.67;1740259;82;21032;-64
2023/11/11 02:44:56;;;;;;;6.25;2.98;;;;;;;8.65;75.62;99914.22;1740162;82;21008;-63
2023/11/11 02:47:26;;;;;;;4.97;2.75;;;;;;;8.65;75.65;99911.49;1740109;82;21167;-65
2023/11/11 02:49:54;;;;;;;5.67;3.12;;;;;;;8.64;75.65;99911.69;1739977;82;21043;-62
2023/11/11 02:52:23;;;;;;;4.90;3.30;;;;;;;8.64;75.65;99922.61;1740225;82;21012;-63
2023/11/11 02:54:52;;;;;;;5.37;2.95;;;;;;;8.64;75.72;99902.13;1740034;82;21347;-63
2023/11/11 02:57:21;;;;;;;5.20;3.12;;;;;;;8.65;75.74;99909.28;1740320;82;21031;-63
2023/11/11 02:59:50;;;;;;;5.42;3.08;;;;;;;8.66;75.82;99913.18;1740089;82;21533;-63
2023/11/11 03:02:21;;;;;;;5.75;2.80;;;;;;;8.68;75.90;99917.92;1740209;82;21063;-62
2023/11/11 03:04:49;;;;;;;7.90;3.30;;;;;;;8.69;76.10;99916.04;1704850;84;21024;-63
2023/11/11 03:07:19;;;;;;;5.25;3.12;;;;;;;8.70;76.22;99910.37;1740180;82;21087;-64
2023/11/11 03:09:48;;;;;;;5.67;3.20;;;;;;;8.73;76.35;99913.23;1740113;82;21094;-63
2023/11/11 03:12:18;;;;;;;5.95;3.37;;;;;;;8.74;76.54;99907.57;1740019;82;21087;-63
2023/11/11 03:14:46;;;;;;;4.12;2.80;;;;;;;8.74;76.74;99906.73;1704750;84;21308;-64
2023/11/11 03:17:16;;;;;;;6.08;3.15;;;;;;;8.77;77.01;99900.87;1739903;82;21035;-64
2023/11/11 03:19:45;;;;;;;4.87;2.62;;;;;;;8.80;77.19;99891.76;1705326;84;21095;-62
2023/11/11 03:22:13;;;;;;;4.47;3.00;;;;;;;8.83;77.33;99895.98;1742070;82;21518;-62
2023/11/11 03:24:42;;;;;;;4.33;2.77;;;;;;;8.84;77.39;99894.41;1742616;82;21023;-64
2023/11/11 03:27:11;;;;;;;8.20;3.10;;;;;;;8.85;77.68;99887.06;1742301;82;21464;-62
2023/11/11 03:29:39;;;;;;;4.72;2.85;;;;;;;8.86;77.88;99885.50;1742465;82;21011;-62
2023/11/11 03:32:08;;;;;;;5.47;3.00;;;;;;;8.91;78.07;99886.27;1742362;82;20996;-65
2023/11/11 03:34:36;;;;;;;3.35;2.40;;;;;;;8.91;78.29;99869.88;1742279;82;21055;-63
2023/11/11 03:37:05;;;;;;;5.72;2.85;;;;;;;8.92;78.55;99871.56;1742495;82;20999;-63
2023/11/11 03:39:34;;;;;;;5.60;2.80;;;;;;;8.92;78.73;99866.09;1742506;82;21035;-62
2023/11/11 03:42:05;;;;;;;4.40;2.75;;;;;;;8.91;78.86;99869.88;1742414;82;21063;-64
2023/11/11 03:44:33;;;;;;;4.87;3.00;;;;;;;8.93;79.01;99860.95;1742368;82;21032;-64
2023/11/11 03:47:02;;;;;;;4.87;3.20;;;;;;;8.94;79.14;99857.17;1689731;82;21012;-62
2023/11/11 03:49:31;;;;;;;3.60;2.80;;;;;;;8.96;79.26;99858.34;1742483;82;21040;-62
2023/11/11 03:51:59;;;;;;;5.20;3.00;;;;;;;8.97;79.27;99855.93;1742324;82;20996;-62
2023/11/11 03:54:28;;;;;;;5.10;3.17;;;;;;;8.96;79.28;99848.78;1742297;82;21448;-62
2023/11/11 03:56:57;;;;;;;6.35;3.05;;;;;;;8.93;79.21;99850.55;1742349;82;21040;-61
2023/11/11 03:59:25;;;;;;;3.80;2.77;;;;;;;8.92;79.20;99837.93;1742343;82;20988;-62
2023/11/11 04:01:55;;;;;;;4.72;2.62;;;;;;;8.91;79.03;99837.09;1721521;82;21048;-63
2023/11/11 04:04:23;;;;;;;3.90;2.92;;;;;;;8.90;79.03;99831.30;1742121;82;21636;-66
2023/11/11 04:06:52;;;;;;;5.10;2.92;;;;;;;8.91;79.03;99832.98;1706771;84;21502;-63
2023/11/11 04:09:21;;;;;;;7.83;3.37;;;;;;;8.94;79.00;99818.92;1742157;82;21110;-61
2023/11/11 04:11:50;;;;;;;3.52;2.65;;;;;;;8.94;78.85;99814.83;1742310;82;21000;-61
2023/11/11 04:14:19;;;;;;;6.05;2.95;;;;;;;8.94;78.77;99821.66;1742230;82;21055;-63
2023/11/11 04:16:47;;;;;;;4.03;2.62;;;;;;;8.94;78.84;99824.39;1742396;82;20972;-62
2023/11/11 04:19:16;;;;;;;5.08;3.05;;;;;;;8.94;78.83;99814.83;1721561;82;21032;-62
2023/11/11 04:21:52;;;;;;;5.42;2.80;;;;;;;8.94;78.93;99817.56;1742589;82;21079;-62
2023/11/11 04:24:21;;;;;;;5.80;3.02;;;;;;;8.96;78.93;99811.37;1742336;82;21506;-62
2023/11/11 04:26:50;;;;;;;4.62;2.70;;;;;;;8.96;78.83;99818.20;1742418;82;21064;-63
2023/11/11 04:29:19;;;;;;;6.15;2.87;;;;;;;8.94;78.70;99809.36;1742401;82;21094;-64
2023/11/11 04:31:47;;;;;;;3.95;2.60;;;;;;;8.94;78.78;99803.90;1742429;82;21460;-64
2023/11/11 04:34:16;;;;;;;6.83;3.00;;;;;;;8.97;78.86;99809.48;1742285;82;21035;-62
2023/11/11 04:36:44;;;;;;;6.37;3.17;;;;;;;8.98;78.70;99808.44;1742339;82;21452;-62
2023/11/11 04:39:14;;;;;;;4.90;3.10;;;;;;;8.99;78.67;99806.88;1706775;84;21068;-62
2023/11/11 04:41:44;;;;;;;5.55;3.20;;;;;;;9.00;78.67;99802.25;1742375;82;21024;-62
2023/11/11 04:44:14;;;;;;;5.20;3.20;;;;;;;9.00;78.62;99796.26;1742366;82;21467;-63
2023/11/11 04:46:42;;;;;;;6.53;2.87;;;;;;;8.99;78.66;99808.23;1742436;82;21078;-65
2023/11/11 04:49:11;;;;;;;4.67;2.67;;;;;;;8.98;78.57;99796.98;1706961;84;21051;-63
2023/11/11 04:51:39;;;;;;;5.17;3.20;;;;;;;8.97;78.59;99790.36;1742340;82;21024;-64
2023/11/11 04:54:08;;;;;;;5.03;3.12;;;;;;;8.98;78.69;99794.25;1742398;82;20984;-63
2023/11/11 04:56:37;;;;;;;3.85;2.85;;;;;;;8.99;78.69;99782.80;1742575;82;21012;-64
2023/11/11 04:59:05;;;;;;;4.55;2.87;;;;;;;8.98;78.60;99782.48;1742396;82;21015;-62
2023/11/11 05:01:34;;;;;;;6.15;2.98;;;;;;;8.98;78.67;99786.58;1742404;82;21016;-62
2023/11/11 05:04:03;;;;;;;5.87;2.90;;;;;;;8.97;78.64;99789.83;1742629;82;21012;-62
2023/11/11 05:06:32;;;;;;;3.77;2.60;;;;;;;8.97;78.67;99787.63;1742544;82;21016;-62
2023/11/11 05:09:01;;;;;;;4.12;2.85;;;;;;;8.96;78.66;99795.50;1742519;82;21087;-65
2023/11/11 05:11:31;;;;;;;5.00;2.58;;;;;;;8.98;78.71;99798.35;1742557;82;21020;-64
2023/11/11 05:13:59;;;;;;;4.08;2.65;;;;;;;9.00;78.59;99795.42;1742333;82;21043;-64
2023/11/11 05:16:39;;;;;;;5.33;2.60;;;;;;;9.00;78.42;99802.25;1742339;82;21032;-63
2023/11/11 05:19:04;;;;;;;5.35;2.70;;;;;;;8.99;78.48;99804.66;1741203;82;21060;-63
2023/11/11 05:21:32;;;;;;;3.72;2.72;;;;;;;8.97;78.43;99808.12;1727069;82;21060;-63
2023/11/11 05:24:01;;;;;;;3.80;2.70;;;;;;;8.95;78.62;99811.05;1725605;83;20996;-63
2023/11/11 05:26:33;;;;;;;4.45;2.47;;;;;;;8.96;78.68;99810.53;1678701;85;21484;-63
2023/11/11 05:29:03;;;;;;;5.17;2.90;;;;;;;8.97;78.64;99802.13;1725549;83;21091;-62
2023/11/11 05:31:32;;;;;;;4.62;2.77;;;;;;;8.97;78.75;99799.39;1725534;83;21025;-63
2023/11/11 05:34:01;;;;;;;4.70;2.62;;;;;;;8.97;78.84;99802.66;1725675;83;21077;-62
2023/11/11 05:36:32;;;;;;;4.37;2.40;;;;;;;8.98;78.83;99792.89;1725412;83;21056;-61
2023/11/11 05:39:01;;;;;;;3.50;2.45;;;;;;;9.00;78.80;99794.89;1725523;82;21040;-63
2023/11/11 05:41:31;;;;;;;5.67;3.00;;;;;;;8.99;78.76;99785.53;1725379;83;21444;-63
2023/11/11 05:44:03;;;;;;;5.15;2.77;;;;;;;8.99;78.71;99783.64;1707130;83;21472;-63
2023/11/11 05:46:31;;;;;;;7.53;4.00;;;;;;;8.98;78.76;99781.95;1725492;83;21047;-63
2023/11/11 05:48:59;;;;;;;6.12;3.02;;;;;;;8.96;78.81;99775.85;1707285;83;21032;-63
2023/11/11 05:51:30;;;;;;;5.35;3.05;;;;;;;9.00;78.79;99777.13;1707509;83;21051;-63
2023/11/11 05:53:58;;;;;;;4.70;2.62;;;;;;;9.01;78.77;99769.78;1725457;83;21028;-63
2023/11/11 05:56:26;;;;;;;5.45;2.80;;;;;;;9.02;78.75;99763.27;1707215;83;21108;-63
2023/11/11 05:58:58;;;;;;;5.62;3.22;;;;;;;9.03;78.77;99761.70;1707188;83;21043;-63
2023/11/11 06:01:26;;;;;;;7.83;2.98;;;;;;;9.00;78.70;99752.55;1725502;83;21051;-64
2023/11/11 06:03:55;;;;;;;4.40;2.92;;;;;;;9.00;78.88;99750.33;1725655;83;21076;-63
2023/11/11 06:06:24;;;;;;;5.17;2.87;;;;;;;9.02;78.82;99749.08;1725408;83;21091;-63
2023/11/11 06:08:57;;;;;;;6.35;3.42;;;;;;;9.03;78.71;99745.30;1725604;83;21064;-65
2023/11/11 06:11:26;;;;;;;6.33;2.77;;;;;;;9.05;78.62;99739.11;1707211;83;21048;-65
2023/11/11 06:13:56;;;;;;;4.97;2.77;;;;;;;9.06;78.57;99732.59;1725653;83;21060;-63
2023/11/11 06:16:25;;;;;;;5.20;3.10;;;;;;;9.07;78.32;99733.44;1668770;85;21107;-64
2023/11/11 06:18:54;;;;;;;6.55;3.08;;;;;;;9.07;78.30;99728.81;1707059;83;21060;-64
2023/11/11 06:21:23;;;;;;;7.40;3.20;;;;;;;9.09;78.23;99724.52;1737375;82;21098;-62
2023/11/11 06:23:55;;;;;;;5.62;2.95;;;;;;;9.11;78.19;99718.35;1742224;82;21040;-63
2023/11/11 06:26:22;;;;;;;5.12;2.92;;;;;;;9.12;78.15;99707.22;1707024;84;21071;-64
2023/11/11 06:28:52;;;;;;;4.55;3.10;;;;;;;9.15;77.99;99701.34;1742362;82;21071;-63
2023/11/11 06:31:21;;;;;;;5.15;3.08;;;;;;;9.14;77.96;99692.83;1707042;84;21048;-63
2023/11/11 06:33:50;;;;;;;5.50;2.80;;;;;;;9.15;77.88;99683.58;1742587;82;21028;-64
2023/11/11 06:36:19;;;;;;;3.50;2.52;;;;;;;9.15;77.93;99695.03;1742488;82;21072;-63
2023/11/11 06:38:47;;;;;;;4.08;2.50;;;;;;;9.16;78.04;99693.45;1742275;82;21043;-64
2023/11/11 06:41:17;;;;;;;5.17;2.67;;;;;;;9.17;78.04;99685.58;1706702;84;21072;-64
2023/11/11 06:43:46;;;;;;;5.30;2.90;;;;;;;9.20;78.00;99693.89;1742347;82;21470;-64
2023/11/11 06:46:15;;;;;;;4.15;2.65;;;;;;;9.21;78.00;99689.58;1686878;84;21223;-64
2023/11/11 06:48:44;;;;;;;4.33;2.77;;;;;;;9.21;77.96;99678.65;1742366;82;21048;-64
2023/11/11 06:51:14;;;;;;;5.33;2.75;;;;;;;9.24;78.08;99685.59;1742373;82;21082;-64
2023/11/11 06:53:43;;;;;;;4.42;2.52;;;;;;;9.26;77.96;99682.66;1742313;82;21048;-64
2023/11/11 06:56:15;;;;;;;5.20;2.60;;;;;;;9.23;77.69;99674.87;1742311;82;21304;-64
2023/11/11 06:58:45;;;;;;;7.17;2.58;;;;;;;9.25;77.78;99672.77;1742284;82;21028;-64
2023/11/11 07:01:22;;;;;;;4.75;2.87;;;;;;;9.27;77.89;99666.57;1742675;82;21020;-63
2023/11/11 07:03:47;;;;;;;6.15;2.70;;;;;;;9.29;77.83;99672.67;1721521;82;21058;-63
2023/11/11 07:06:22;;;;;;;5.75;2.87;;;;;;;9.29;77.75;99668.05;1742301;82;21044;-63
2023/11/11 07:08:46;;;;;;;4.25;3.60;;;;;;;9.30;77.83;99657.95;1741976;82;21016;-63
2023/11/11 07:11:15;;;;;;;6.28;2.98;;;;;;;9.33;77.82;99653.44;1742517;82;20984;-65
2023/11/11 07:13:44;;;;;;;4.35;2.90;;;;;;;9.34;77.95;99660.06;1721581;82;21043;-63
2023/11/11 07:16:18;;;;;;;5.00;2.90;;;;;;;9.38;77.84;99655.02;1742479;82;21040;-63
2023/11/11 07:18:48;;;;;;;5.35;3.35;;;;;;;9.40;77.72;99657.02;1742387;82;21071;-62
2023/11/11 07:21:22;;;;;;;4.70;2.52;;;;;;;9.42;77.78;99661.76;1735732;82;21048;-62
2023/11/11 07:23:53;;;;;;;4.40;2.90;;;;;;;9.43;77.83;99648.41;1730514;82;21174;-63
2023/11/11 07:26:23;;;;;;;7.22;3.02;;;;;;;9.46;77.83;99646.09;1730308;82;21016;-63
2023/11/11 07:28:53;;;;;;;7.08;3.25;;;;;;;9.47;77.93;99640.10;1730361;83;21040;-62
2023/11/11 07:31:22;;;;;;;6.05;2.92;;;;;;;9.48;78.10;99637.69;1730337;83;21075;-64
2023/11/11 07:33:54;;;;;;;5.72;3.27;;;;;;;9.48;78.33;99630.32;1730284;82;21084;-62
2023/11/11 07:36:24;;;;;;;5.25;2.80;;;;;;;9.47;78.54;99629.16;1712172;83;21068;-61
2023/11/11 07:38:53;;;;;;;5.75;3.15;;;;;;;9.46;78.94;99633.79;1730468;83;21017;-63
2023/11/11 07:41:23;;;;;;;6.42;3.12;;;;;;;9.47;79.53;99623.69;1730304;83;21511;-64
2023/11/11 07:43:56;;;;;;;10.30;3.60;;;;;;;9.45;79.88;99621.69;1730502;83;21052;-63
2023/11/11 07:46:25;;;;;;;5.87;3.40;;;;;;;9.44;80.39;99630.42;1730334;83;21056;-63
2023/11/11 07:48:55;;;;;;;6.03;3.20;;;;;;;9.44;80.61;99624.11;1711893;83;21071;-63
2023/11/11 07:51:25;;;;;;;4.47;3.20;;;;;;;9.44;80.52;99611.81;1730348;82;21055;-64
2023/11/11 07:53:54;;;;;;;6.10;3.67;;;;;;;9.44;80.40;99614.55;1730487;83;21028;-62
2023/11/11 07:56:36;;;;;;;7.60;4.08;;;;;;;9.43;80.24;99607.39;1730557;83;21072;-63
2023/11/11 07:59:05;;;;;;;6.80;3.40;;;;;;;9.43;80.36;99604.66;1730364;83;21004;-64
2023/11/11 08:01:33;;;;;;;8.50;3.90;;;;;;;9.43;80.74;99610.13;1730460;83;20996;-63
2023/11/11 08:04:05;;;;;;;8.75;3.62;;;;;;;9.44;81.18;99603.61;1730383;82;21067;-62
2023/11/11 08:06:34;;;;;;;6.78;3.67;;;;;;;9.45;81.57;99606.13;1693070;84;21068;-63
2023/11/11 08:09:03;;;;;;;5.95;3.70;;;;;;;9.45;81.70;99599.30;1686144;85;21079;-65
2023/11/11 08:11:31;;;;;;;8.40;4.10;;;;;;;9.45;81.83;99598.45;1692976;84;21029;-63
2023/11/11 08:14:00;;;;;;;8.50;3.83;;;;;;;9.45;81.98;99588.36;1686001;85;21064;-63
2023/11/11 08:16:29;;;;;;;8.88;3.98;;;;;;;9.44;82.39;99584.47;1693180;85;21046;-63
2023/11/11 08:18:58;;;;;;;10.20;4.15;;;;;;;9.44;82.89;99575.73;1693020;85;21149;-63
2023/11/11 08:21:31;;;;;;;7.33;4.25;;;;;;;9.43;83.05;99582.78;1681321;85;21115;-63
2023/11/11 08:23:59;;;;;;;8.78;4.65;;;;;;;9.42;83.46;99579.73;1676377;85;22198;-64
2023/11/11 08:26:28;;;;;;;9.13;4.72;;;;;;;9.43;83.67;99569.95;1676751;85;21064;-62
2023/11/11 08:28:58;;;;;;;7.53;4.12;;;;;;;9.43;83.76;99566.38;1676736;85;21012;-63
2023/11/11 08:31:28;;;;;;;11.88;4.90;;;;;;;9.42;84.21;99565.54;1700835;84;21052;-65
2023/11/11 08:33:56;;;;;;;8.13;4.50;;;;;;;9.38;84.09;99559.34;1710632;84;21016;-63
2023/11/11 08:36:25;;;;;;;8.08;4.83;;;;;;;9.38;84.50;99562.07;1700610;84;21028;-63
2023/11/11 08:38:55;;;;;;;12.18;5.37;;;;;;;9.37;85.11;99564.49;1700755;84;21060;-63
2023/11/11 08:41:25;;;;;;;7.87;4.62;;;;;;;9.34;85.53;99560.28;1678085;84;21012;-64
2023/11/11 08:43:54;;;;;;;8.53;4.97;;;;;;;9.31;85.65;99562.59;1700640;84;21024;-63
2023/11/11 08:46:23;;;;;;;8.78;5.40;;;;;;;9.31;85.92;99552.50;1700693;84;21060;-65
2023/11/11 08:48:51;;;;;;;10.00;6.25;;;;;;;9.28;86.13;99547.45;1710515;84;21104;-62
2023/11/11 08:51:20;;;;;;;12.30;6.05;;;;;;;9.28;86.63;99542.52;1710577;84;21452;-64
2023/11/11 08:53:49;;;;;;;12.13;5.97;;;;;;;9.27;86.93;99538.94;1722120;82;21044;-62
2023/11/11 08:56:17;;;;;;;12.93;6.97;;;;;;;9.29;87.56;99528.64;1711114;82;21041;-64
2023/11/11 08:58:46;;;;;;;11.85;6.55;;;;;;;9.29;87.86;99528.64;1718460;82;21071;-64
2023/11/11 09:01:16;;;;;;;11.80;6.75;;;;;;;9.27;87.98;99518.97;1740081;81;21021;-62
2023/11/11 09:03:45;;;;;;;9.63;6.72;;;;;;;9.27;88.55;99521.70;1724357;82;21054;-64
2023/11/11 09:06:16;;;;;;;11.53;7.00;;;;;;;9.26;88.95;99505.83;1708159;83;21044;-65
2023/11/11 09:08:45;;;;;;;11.48;6.97;;;;;;;9.26;89.06;99496.78;1727133;82;21120;-64
2023/11/11 09:11:15;;;;;;;13.32;7.17;;;;;;;9.25;89.15;99495.11;1736098;82;21028;-63
2023/11/11 09:13:45;;;;;;;14.55;7.33;;;;;;;9.25;89.46;99486.91;1710273;83;21513;-67
2023/11/11 09:16:15;;;;;;;16.77;6.92;;;;;;;9.27;90.01;99477.97;1710707;82;21474;-64
2023/11/11 09:18:47;;;;;;;13.70;7.90;;;;;;;9.28;90.40;99464.09;1710334;84;21038;-63
2023/11/11 09:21:16;;;;;;;12.75;7.03;;;;;;;9.29;90.90;99466.30;1708220;82;21081;-65
2023/11/11 09:23:47;;;;;;;13.40;8.10;;;;;;;9.31;91.21;99465.56;1742136;82;21038;-65
2023/11/11 09:26:17;;;;;;;11.70;7.70;;;;;;;9.34;91.25;99448.73;1742023;82;21077;-65
2023/11/11 09:28:46;;;;;;;15.53;8.28;;;;;;;9.34;91.28;99448.20;1742311;81;21032;-65
2023/11/11 09:31:15;;;;;;;15.35;8.53;;;;;;;9.27;91.37;99437.81;1742169;82;21479;-66
2023/11/11 09:33:45;;;;;;;13.80;9.15;;;;;;;9.27;91.67;99432.87;1742360;82;21012;-65
2023/11/11 09:36:14;;;;;;;20.77;12.60;;;;;;;9.28;91.74;99433.19;1742199;82;21659;-62
2023/11/11 09:38:44;;;;;;;16.00;8.98;;;;;;;9.30;91.99;99425.61;1721578;82;21036;-62
2023/11/11 09:41:13;;;;;;;17.00;9.10;;;;;;;9.29;92.06;99419.30;1742175;82;21043;-64
2023/11/11 09:43:42;;;;;;;15.48;8.95;;;;;;;9.28;92.31;99409.95;1721286;82;21557;-63
2023/11/11 09:46:15;;;;;;;16.25;9.33;;;;;;;9.27;92.50;99408.27;1742009;82;21481;-64
2023/11/11 09:48:44;;;;;;;16.77;10.45;;;;;;;9.28;92.80;99405.33;1742129;82;21036;-65
2023/11/11 09:51:12;;;;;;;16.75;10.30;;;;;;;9.24;93.18;99384.94;1747492;82;21526;-63
2023/11/11 09:53:42;;;;;;;18.48;9.95;;;;;;;9.21;93.49;99386.20;1698657;82;21074;-65
2023/11/11 09:56:11;;;;;;;19.12;10.78;;;;;;;9.20;93.80;99377.69;1678334;85;21036;-64
2023/11/11 09:58:41;;;;;;;17.00;10.35;;;;;;;9.19;94.07;99368.34;1738987;82;21040;-65
2023/11/11 10:01:10;;;;;;;19.27;11.60;;;;;;;9.16;94.45;99358.68;1742194;82;21099;-65
2023/11/11 10:03:39;;;;;;;17.65;10.40;;;;;;;9.14;94.82;99355.32;1683001;85;21106;-65
2023/11/11 10:06:08;;;;;;;16.70;10.35;;;;;;;9.11;95.07;99357.12;1706830;84;21140;-64
2023/11/11 10:08:38;;;;;;;18.23;11.08;;;;;;;9.05;95.37;99348.91;1685837;85;21166;-66
2023/11/11 10:11:09;;;;;;;15.85;10.68;;;;;;;9.02;96.01;99336.51;1696425;84;21041;-65
2023/11/11 10:13:37;;;;;;;16.75;9.63;;;;;;;9.01;96.35;99338.92;1720285;82;21656;-65
2023/11/11 10:16:17;;;;;;;17.57;10.88;;;;;;;8.99;96.92;99335.57;1742327;82;21486;-64
2023/11/11 10:18:47;;;;;;;18.42;11.70;;;;;;;9.00;97.66;99314.55;1742017;82;21057;-65
2023/11/11 10:21:16;;;;;;;20.85;11.88;;;;;;;8.97;97.96;99309.52;1698191;82;21512;-65
2023/11/11 10:23:45;;;;;;;98.72;17.55;;;;;;;8.95;98.11;99302.91;1742063;82;21045;-66
2023/11/11 10:26:17;;;;;;;21.27;12.55;;;;;;;8.93;98.13;99300.91;1742357;82;21109;-69
2023/11/11 10:28:49;;;;;;;21.27;12.78;;;;;;;8.88;98.23;99301.55;1742156;82;21080;-66
2023/11/11 10:31:19;;;;;;;20.80;13.25;;;;;;;8.85;98.44;99290.22;1742090;82;21041;-66
2023/11/11 10:33:49;;;;;;;23.95;13.93;;;;;;;8.80;98.69;99289.49;1721834;82;21673;-65
2023/11/11 10:36:19;;;;;;;22.00;14.15;;;;;;;8.77;98.95;99293.17;1745645;82;21035;-68
2023/11/11 10:38:48;;;;;;;22.25;14.60;;;;;;;8.70;99.59;99293.72;1747633;82;21039;-66
2023/11/11 10:41:17;;;;;;;64.90;23.38;;;;;;;8.64;99.81;99285.01;1723544;82;21076;-67
2023/11/11 10:43:45;;;;;;;32.05;18.70;;;;;;;8.60;100.00;99281.03;1686145;85;21016;-66
2023/11/11 10:46:14;;;;;;;28.20;17.02;;;;;;;8.56;100.00;99270.53;1747698;82;21001;-67
2023/11/11 10:48:43;;;;;;;21.30;13.13;;;;;;;8.55;100.00;99268.02;1685823;85;21586;-67
2023/11/11 10:51:12;;;;;;;30.60;17.30;;;;;;;8.64;100.00;99265.89;1747761;82;21026;-67
2023/11/11 10:53:41;;;;;;;37.30;20.77;;;;;;;8.90;100.00;99269.40;1747592;82;21419;-71
2023/11/11 10:56:09;;;;;;;43.42;24.82;;;;;;;8.92;100.00;99258.27;1685876;85;21545;-69
2023/11/11 10:58:38;;;;;;;42.58;24.75;;;;;;;8.87;100.00;99254.80;1747789;82;21012;-72
2023/11/11 11:01:07;;;;;;;1999.90;603.55;;;;;;;8.85;100.00;99257.44;1685989;85;21117;-67
2023/11/11 11:03:36;;;;;;;1989.60;394.77;;;;;;;8.79;100.00;99252.31;1744422;82;21050;-69
2023/11/11 11:06:12;;;;;;;122.07;37.78;;;;;;;8.73;100.00;99249.07;1742271;82;21037;-70
2023/11/11 11:09:14;;;;;;;86.42;34.08;;;;;;;8.73;100.00;99238.15;1742310;82;21705;-70
2023/11/11 11:12:06;;;;;;;583.48;111.70;;;;;;;8.72;100.00;99230.17;1742257;82;21014;-69
2023/11/11 11:14:51;;;;;;;61.95;26.87;;;;;;;8.67;100.00;99224.52;1742129;82;21037;-70
2023/11/11 11:17:38;;;;;;;48.35;26.55;;;;;;;8.68;100.00;99222.09;1742139;82;21021;-69
2023/11/11 11:20:20;;;;;;;54.50;26.97;;;;;;;8.68;100.00;99216.64;1742377;82;21041;-69
2023/11/11 11:22:47;;;;;;;48.45;26.42;;;;;;;8.62;100.00;99209.30;1738933;82;21153;-67
2023/11/11 11:25:37;;;;;;;50.58;26.60;;;;;;;8.58;100.00;99211.09;1737686;82;21075;-68
2023/11/11 11:28:18;;;;;;;51.23;27.87;;;;;;;8.57;100.00;99203.95;1737433;82;21041;-67
2023/11/11 11:31:02;;;;;;;48.45;27.42;;;;;;;8.56;100.00;99195.45;1737437;82;21054;-69
2023/11/11 11:33:35;;;;;;;51.28;26.15;;;;;;;8.52;100.00;99196.94;1737299;82;21062;-69
2023/11/11 11:36:09;;;;;;;47.85;25.02;;;;;;;8.51;100.00;99194.42;1737504;82;21537;-68
2023/11/11 11:38:39;;;;;;;46.95;25.60;;;;;;;8.49;100.00;99183.72;1737480;82;21085;-72
2023/11/11 11:41:21;;;;;;;51.92;26.02;;;;;;;8.48;100.00;99181.20;1737569;82;21033;-68
2023/11/11 11:43:54;;;;;;;50.98;26.30;;;;;;;8.48;100.00;99177.95;1737438;82;21037;-68
2023/11/11 11:46:23;;;;;;;50.43;26.23;;;;;;;8.50;100.00;99173.11;1693906;82;21069;-68
2023/11/11 11:48:52;;;;;;;47.43;25.65;;;;;;;8.51;100.00;99165.76;1737433;82;21070;-69